createdAt,value
2018-04-27T00:04:25.894Z,99.90
2018-04-27T00:06:55.118Z,99.90
2018-04-27T00:09:23.364Z,99.90
2018-04-27T00:11:52.398Z,99.90
2018-04-27T00:14:20.970Z,99.90
2018-04-27T00:16:49.239Z,99.90
2018-04-27T00:19:18.266Z,99.90
2018-04-27T00:21:46.864Z,99.90
2018-04-27T00:24:15.159Z,99.90
2018-04-27T00:26:43.444Z,99.90
2018-04-27T00:29:11.946Z,99.90
2018-04-27T00:31:40.206Z,99.90
2018-04-27T00:34:08.471Z,99.90
2018-04-27T00:36:37.145Z,99.90
2018-04-27T00:39:05.445Z,99.90
2018-04-27T00:41:33.747Z,99.90
2018-04-27T01:02:04.496Z,99.90
2018-04-27T01:04:32.758Z,99.90
2018-04-27T01:07:01.033Z,99.90
2018-04-27T01:09:29.368Z,99.90
2018-04-27T01:11:58.443Z,99.90
2018-04-27T01:14:26.727Z,99.90
2018-04-27T01:16:55.839Z,99.90
2018-04-27T01:37:27.169Z,99.90
2018-04-27T01:39:55.482Z,99.90
2018-04-27T01:42:23.781Z,99.90
2018-04-27T01:44:52.855Z,99.90
2018-04-27T01:47:21.340Z,99.90
2018-04-27T01:49:49.588Z,99.90
2018-04-27T01:52:17.870Z,99.90
2018-04-27T01:54:47.882Z,99.90
2018-04-27T01:57:16.163Z,99.90
2018-04-27T01:59:44.385Z,99.90
2018-04-27T02:02:12.653Z,99.90
2018-04-27T02:04:41.728Z,99.90
2018-04-27T02:07:10.015Z,99.90
2018-04-27T02:09:38.293Z,99.90
2018-04-27T02:12:06.671Z,99.90
2018-04-27T02:14:35.008Z,99.90
2018-04-27T02:17:04.034Z,99.90
2018-04-27T02:19:32.332Z,99.90
2018-04-27T02:22:00.586Z,99.90
2018-04-27T02:24:29.873Z,99.90
2018-04-27T02:26:58.089Z,99.90
2018-04-27T02:47:29.835Z,99.90
2018-04-27T02:49:58.943Z,99.90
2018-04-27T02:52:27.965Z,99.90
2018-04-27T02:54:56.303Z,99.90
2018-04-27T02:57:24.568Z,99.90
2018-04-27T02:59:52.858Z,99.90
2018-04-27T03:02:21.293Z,99.90
2018-04-27T03:04:49.526Z,99.90
2018-04-27T03:07:18.676Z,99.90
2018-04-27T03:09:46.987Z,99.90
2018-04-27T03:12:15.414Z,99.90
2018-04-27T03:14:44.453Z,99.90
2018-04-27T03:17:12.748Z,99.90
2018-04-27T03:19:41.014Z,99.90
2018-04-27T03:22:09.259Z,99.90
2018-04-27T03:24:37.577Z,99.90
2018-04-27T03:27:05.834Z,99.90
2018-04-27T03:29:34.145Z,99.90
2018-04-27T03:32:02.430Z,99.90
2018-04-27T03:34:30.721Z,99.90
2018-04-27T03:55:04.538Z,99.90
2018-04-27T03:57:32.831Z,99.90
2018-04-27T04:00:13.002Z,99.90
2018-04-27T04:02:53.209Z,99.90
2018-04-27T04:05:29.486Z,99.90
2018-04-27T04:07:57.769Z,99.90
2018-04-27T04:10:26.068Z,99.90
2018-04-27T04:12:54.605Z,99.90
2018-04-27T04:15:22.879Z,99.90
2018-04-27T04:17:51.115Z,99.90
2018-04-27T04:20:19.452Z,99.90
2018-04-27T04:22:47.703Z,99.90
2018-04-27T04:25:16.734Z,99.90
2018-04-27T04:27:45.078Z,99.90
2018-04-27T04:30:13.350Z,99.90
2018-04-27T04:50:45.811Z,99.90
2018-04-27T04:53:14.079Z,99.90
2018-04-27T04:55:42.317Z,99.90
2018-04-27T04:58:10.618Z,99.90
2018-04-27T05:00:38.879Z,99.90
2018-04-27T05:03:07.907Z,99.90
2018-04-27T05:05:36.162Z,99.90
2018-04-27T05:08:04.397Z,99.90
2018-04-27T05:10:32.738Z,99.90
2018-04-27T05:13:01.251Z,99.90
2018-04-27T05:15:29.514Z,99.90
2018-04-27T05:17:57.829Z,99.90
2018-04-27T05:20:25.759Z,99.90
2018-04-27T05:22:54.905Z,99.90
2018-04-27T05:25:23.337Z,99.90
2018-04-27T05:27:51.637Z,99.90
2018-04-27T05:30:19.994Z,99.90
2018-04-27T05:50:51.429Z,99.90
2018-04-27T05:53:19.722Z,99.90
2018-04-27T05:55:48.732Z,99.90
2018-04-27T05:58:17.275Z,99.90
2018-04-27T06:00:46.355Z,99.90
2018-04-27T06:03:14.618Z,99.90
2018-04-27T06:05:43.230Z,99.90
2018-04-27T06:08:11.497Z,99.90
2018-04-27T06:10:39.812Z,99.90
2018-04-27T06:13:08.312Z,99.90
2018-04-27T06:15:36.536Z,99.90
2018-04-27T06:18:04.806Z,99.90
2018-04-27T06:20:33.297Z,99.90
2018-04-27T06:23:01.621Z,99.90
2018-04-27T06:25:30.088Z,99.90
2018-04-27T06:27:58.364Z,99.90
2018-04-27T06:30:26.941Z,99.90
2018-04-27T06:32:55.189Z,99.90
2018-04-27T06:35:24.487Z,99.90
2018-04-27T06:37:53.519Z,99.90
2018-04-27T06:58:24.851Z,99.90
2018-04-27T07:00:53.171Z,99.90
2018-04-27T07:03:21.445Z,99.90
2018-04-27T07:05:49.994Z,99.90
2018-04-27T07:08:18.300Z,99.90
2018-04-27T07:10:46.609Z,99.90
2018-04-27T07:13:15.112Z,99.90
2018-04-27T07:15:43.407Z,99.90
2018-04-27T07:18:11.786Z,99.90
2018-04-27T07:20:40.144Z,99.90
2018-04-27T07:23:08.440Z,99.90
2018-04-27T07:25:36.677Z,99.90
2018-04-27T07:28:05.141Z,99.90
2018-04-27T07:30:33.420Z,99.90
2018-04-27T07:33:03.061Z,99.90
2018-04-27T07:35:31.580Z,99.90
2018-04-27T07:37:59.844Z,99.90
2018-04-27T07:40:28.081Z,99.90
2018-04-27T08:01:01.150Z,99.90
2018-04-27T08:03:29.484Z,99.90
2018-04-27T08:05:57.758Z,99.90
2018-04-27T08:26:27.866Z,99.90
2018-04-27T08:29:05.337Z,99.90
2018-04-27T08:31:33.825Z,99.90
2018-04-27T08:34:02.107Z,99.90
2018-04-27T08:36:30.421Z,99.90
2018-04-27T08:38:58.712Z,99.90
2018-04-27T08:59:30.403Z,99.90
2018-04-27T09:01:58.846Z,99.90
2018-04-27T09:04:27.107Z,99.90
2018-04-27T09:06:55.369Z,99.90
2018-04-27T09:09:23.719Z,99.90
2018-04-27T09:11:52.097Z,99.90
2018-04-27T09:14:20.362Z,99.90
2018-04-27T09:16:48.702Z,99.90
2018-04-27T09:19:16.970Z,99.90
2018-04-27T09:21:45.263Z,99.90
2018-04-27T09:24:13.849Z,99.90
2018-04-27T09:26:42.115Z,99.90
2018-04-27T09:29:11.175Z,99.90
2018-04-27T09:31:39.470Z,99.90
2018-04-27T09:34:08.558Z,99.90
2018-04-27T09:36:36.838Z,99.90
2018-04-27T09:39:05.165Z,99.90
2018-04-27T09:41:33.438Z,99.90
2018-04-27T09:44:01.705Z,99.90
2018-04-27T10:04:32.113Z,99.90
2018-04-27T10:25:03.870Z,99.90
2018-04-27T10:27:32.140Z,99.90
2018-04-27T10:30:00.414Z,99.90
2018-04-27T10:32:28.650Z,99.90
2018-04-27T10:34:57.831Z,99.90
2018-04-27T10:37:26.156Z,99.90
2018-04-27T10:39:54.484Z,99.90
2018-04-27T10:42:22.937Z,99.90
2018-04-27T10:44:51.185Z,99.90
2018-04-27T10:47:20.217Z,99.90
2018-04-27T10:49:48.541Z,99.90
2018-04-27T10:52:17.637Z,99.90
2018-04-27T10:54:45.915Z,99.90
2018-04-27T10:57:14.396Z,99.90
2018-04-27T10:59:44.008Z,99.90
2018-04-27T11:02:12.388Z,99.90
2018-04-27T11:04:40.696Z,99.90
2018-04-27T11:25:11.759Z,99.20
2018-04-27T11:27:40.885Z,99.40
2018-04-27T11:30:09.914Z,98.70
2018-04-27T11:32:38.249Z,98.50
2018-04-27T11:35:06.679Z,97.80
2018-04-27T11:37:34.913Z,98.00
2018-04-27T11:40:03.923Z,97.90
2018-04-27T12:00:34.331Z,95.50
2018-04-27T12:03:03.405Z,90.10
2018-04-27T12:05:31.673Z,90.00
2018-04-27T12:07:59.934Z,93.00
2018-04-27T12:10:28.278Z,90.10
2018-04-27T12:12:56.579Z,90.40
2018-04-27T12:15:25.848Z,89.80
2018-04-27T12:17:54.183Z,89.90
2018-04-27T12:20:22.522Z,87.40
2018-04-27T12:22:50.778Z,84.50
2018-04-27T12:25:19.086Z,79.80
2018-04-27T12:27:47.347Z,79.50
2018-04-27T12:30:15.642Z,76.90
2018-04-27T12:32:43.891Z,80.10
2018-04-27T12:35:12.170Z,73.40
2018-04-27T12:37:40.649Z,69.10
2018-04-27T12:40:08.915Z,64.20
2018-04-27T12:42:37.160Z,64.50
2018-04-27T12:45:06.350Z,68.10
2018-04-27T12:47:34.572Z,68.00
2018-04-27T12:50:02.833Z,63.80
2018-04-27T12:52:31.941Z,58.50
2018-04-27T12:55:00.284Z,58.50
2018-04-27T13:15:34.225Z,50.60
2018-04-27T13:36:04.877Z,43.00
2018-04-27T13:38:33.167Z,40.10
2018-04-27T13:41:01.413Z,40.00
2018-04-27T13:43:29.714Z,38.60
2018-04-27T13:45:58.191Z,39.00
2018-04-27T13:48:26.420Z,41.40
2018-04-27T14:08:59.896Z,35.90
2018-04-27T14:11:28.175Z,36.70
2018-04-27T14:32:01.871Z,33.60
2018-04-27T14:34:30.219Z,33.60
2018-04-27T14:36:58.503Z,33.00
2018-04-27T14:39:27.670Z,31.70
2018-04-27T14:41:55.975Z,31.70
2018-04-27T14:44:24.234Z,32.50
2018-04-27T15:04:55.714Z,29.20
2018-04-27T15:07:23.985Z,30.10
2018-04-27T15:09:52.204Z,30.70
2018-04-27T15:12:20.675Z,30.70
2018-04-27T15:32:52.639Z,32.80
2018-04-27T15:35:21.310Z,31.70
2018-04-27T15:37:49.683Z,31.30
2018-04-27T15:40:18.052Z,30.80
2018-04-27T15:42:46.599Z,31.70
2018-04-27T15:45:15.646Z,32.80
2018-04-27T15:47:43.909Z,32.80
2018-04-27T15:50:12.202Z,32.60
2018-04-27T15:52:40.473Z,33.90
2018-04-27T15:55:08.820Z,34.80
2018-04-27T15:57:37.377Z,34.60
2018-04-27T16:00:06.451Z,34.90
2018-04-27T16:02:34.799Z,34.80
2018-04-27T16:05:03.101Z,34.20
2018-04-27T16:07:31.338Z,35.00
2018-04-27T16:10:00.446Z,36.90
2018-04-27T16:12:29.081Z,36.90
2018-04-27T16:14:57.417Z,35.70
2018-04-27T16:17:26.542Z,37.90
2018-04-27T16:19:55.007Z,38.40
2018-04-27T16:22:23.290Z,38.00
2018-04-27T16:42:56.191Z,43.40
2018-04-27T16:45:25.730Z,43.00
2018-04-27T16:47:53.986Z,43.00
2018-04-27T16:50:23.362Z,44.40
2018-04-27T16:52:52.393Z,45.30
2018-04-27T17:13:26.972Z,49.70
2018-04-27T17:15:55.202Z,49.50
2018-04-27T17:36:29.577Z,54.50
2018-04-27T17:38:57.846Z,54.60
2018-04-27T17:41:26.138Z,54.00
2018-04-27T18:01:55.935Z,62.60
2018-04-27T18:04:24.178Z,65.30
2018-04-27T18:06:52.446Z,65.30
2018-04-27T18:09:20.782Z,66.70
2018-04-27T18:11:49.065Z,70.20
2018-04-27T18:14:17.270Z,74.90
2018-04-27T18:16:45.745Z,76.30
2018-04-27T18:19:14.319Z,79.50
2018-04-27T18:21:43.352Z,88.60
2018-04-27T18:24:11.754Z,87.50
2018-04-27T18:26:40.617Z,88.00
2018-04-27T18:47:12.650Z,91.90
2018-04-27T18:49:41.718Z,95.70
2018-04-27T18:52:10.051Z,95.80
2018-04-27T18:54:38.953Z,97.60
2018-04-27T18:57:07.966Z,94.50
2018-04-27T18:59:36.411Z,94.40
2018-04-27T19:02:04.701Z,93.20
2018-04-27T19:04:33.023Z,90.30
2018-04-27T19:07:01.331Z,88.80
2018-04-27T19:09:29.666Z,88.00
2018-04-27T19:11:58.003Z,85.70
2018-04-27T19:14:26.367Z,82.40
2018-04-27T19:16:55.012Z,81.80
2018-04-27T19:19:23.330Z,82.30
2018-04-27T19:21:51.634Z,85.00
2018-04-27T19:24:20.209Z,85.20
2018-04-27T19:26:48.570Z,85.40
2018-04-27T19:29:16.877Z,87.60
2018-04-27T19:31:45.223Z,86.60
2018-04-27T19:34:13.481Z,87.20
2018-04-27T19:36:42.563Z,86.90
2018-04-27T19:39:11.145Z,86.80
2018-04-27T19:41:39.343Z,88.00
2018-04-27T19:44:08.392Z,90.00
2018-04-27T19:46:36.910Z,90.00
2018-04-27T20:07:08.659Z,99.90
2018-04-27T20:27:41.554Z,96.60
2018-04-27T20:30:11.594Z,96.10
2018-04-27T20:32:41.573Z,96.70
2018-04-27T20:35:20.594Z,96.20
2018-04-27T20:37:51.682Z,96.10
2018-04-27T20:40:20.799Z,96.40
2018-04-27T20:42:49.097Z,95.60
2018-04-27T20:45:21.287Z,95.80
2018-04-27T20:47:50.337Z,94.60
2018-04-27T20:50:25.233Z,94.60
2018-04-27T20:52:53.774Z,94.30
2018-04-27T20:55:22.051Z,95.80
2018-04-27T20:57:50.372Z,99.50
2018-04-27T21:00:23.323Z,99.90
2018-04-27T21:02:52.535Z,99.90
2018-04-27T21:05:20.761Z,99.90
2018-04-27T21:07:49.041Z,99.90
2018-04-27T21:28:25.337Z,99.90
2018-04-27T21:30:55.317Z,99.90
2018-04-27T21:51:40.164Z,99.90
2018-04-27T21:54:09.378Z,99.90
2018-04-27T21:56:46.460Z,99.90
2018-04-27T21:59:18.101Z,99.90
2018-04-27T22:01:46.383Z,99.90
2018-04-27T22:04:14.629Z,99.90
2018-04-27T22:06:42.928Z,99.90
2018-04-27T22:09:11.206Z,99.90
2018-04-27T22:11:43.217Z,99.90
2018-04-27T22:14:14.077Z,99.90
2018-04-27T22:16:45.114Z,99.90
2018-04-27T22:19:14.196Z,99.90
2018-04-27T22:21:42.543Z,99.90
2018-04-27T22:24:12.516Z,99.90
2018-04-27T22:44:47.762Z,99.90
2018-04-27T22:47:19.577Z,99.90
2018-04-27T22:49:47.983Z,99.90
2018-04-27T22:52:17.090Z,99.90
2018-04-27T22:54:56.081Z,99.90
2018-04-27T22:57:44.310Z,99.90
2018-04-27T23:00:15.322Z,99.90
2018-04-27T23:02:43.662Z,99.90
2018-04-27T23:05:23.639Z,99.90
2018-04-27T23:07:51.902Z,99.90
2018-04-27T23:10:23.091Z,99.90
2018-04-27T23:13:07.151Z,99.90
2018-04-27T23:15:38.452Z,99.90
2018-04-27T23:18:08.984Z,99.90
2018-04-27T23:20:37.276Z,99.90
2018-04-27T23:23:07.480Z,99.90
2018-04-27T23:25:38.027Z,99.90
2018-04-27T23:28:07.090Z,99.90
2018-04-27T23:30:37.491Z,99.90
2018-04-27T23:33:05.922Z,99.90
2018-04-27T23:53:39.082Z,99.90
2018-04-27T23:56:07.413Z,99.90
2018-04-27T23:58:35.656Z,99.90
